Time;durP1;ratioP1;P1;durP2;ratioP2;P2;SDS_P1;SDS_P2;PMS_P1;PMS_P2;Temp;Humidity;BMP_temperature;BMP_pressure;BME280_temperature;BME280_humidity;BME280_pressure;Samples;Min_cycle;Max_cycle;Signal;HPM_P1;HPM_P2
2023/09/25 00:00:51;;;;;;;;;1.33;1.33;;;;;26.25;36.75;101772.44;5068911;27;45348;-74
2023/09/25 00:03:16;;;;;;;;;2.00;2.00;;;;;26.31;36.48;101782.34;5071477;27;45632;-75
2023/09/25 00:05:42;;;;;;;;;1.33;1.33;;;;;26.33;36.92;101791.00;5074683;28;45239;-75
2023/09/25 00:08:08;;;;;;;;;1.67;1.00;;;;;26.35;36.91;101785.47;5073433;27;45606;-75
2023/09/25 00:10:33;;;;;;;;;2.00;1.00;;;;;26.38;36.41;101788.63;5042723;28;45423;-75
2023/09/25 00:13:00;;;;;;;;;3.00;2.00;;;;;26.34;36.51;101792.66;5055352;28;45395;-75
2023/09/25 00:15:25;;;;;;;;;1.00;1.00;;;;;26.38;36.78;101795.78;5073624;28;45445;-75
2023/09/25 00:17:53;;;;;;;;;2.33;2.33;;;;;26.28;36.68;101788.88;5074786;28;46251;-75
2023/09/25 00:20:21;;;;;;;;;1.00;1.00;;;;;26.36;36.84;101793.28;5072350;28;45437;-75
2023/09/25 00:22:47;;;;;;;;;3.00;2.00;;;;;26.25;36.42;101770.59;5053551;27;45427;-75
2023/09/25 00:25:12;;;;;;;;;2.00;1.00;;;;;26.24;36.62;101781.44;5048863;28;45397;-75
2023/09/25 00:27:38;;;;;;;;;1.00;0.33;;;;;26.34;36.47;101792.66;5059111;27;46186;-75
2023/09/25 00:30:08;;;;;;;;;2.67;2.00;;;;;26.29;36.61;101803.88;5072800;28;45517;-75
2023/09/25 00:32:34;;;;;;;;;1.67;0.67;;;;;26.36;36.51;101813.81;5068207;28;45444;-75
2023/09/25 00:35:01;;;;;;;;;3.00;2.33;;;;;26.33;36.43;101804.34;5062756;27;45231;-74
2023/09/25 00:37:27;;;;;;;;;1.67;1.00;;;;;26.29;36.68;101795.06;5058766;27;47153;-75
2023/09/25 00:39:52;;;;;;;;;2.00;2.00;;;;;26.37;36.48;101812.78;5073525;28;45383;-74
2023/09/25 00:42:18;;;;;;;;;1.67;1.00;;;;;26.36;37.07;101809.28;5063689;28;45442;-75
2023/09/25 00:44:43;;;;;;;;;2.67;2.67;;;;;26.13;36.93;101775.56;5077794;27;45392;-75
2023/09/25 00:47:09;;;;;;;;;1.00;1.00;;;;;26.34;36.50;101808.66;5078147;27;45451;-75
2023/09/25 00:49:35;;;;;;;;;2.00;2.00;;;;;26.39;36.94;101814.25;5078314;27;45461;-75
2023/09/25 00:52:01;;;;;;;;;1.00;1.00;;;;;26.37;36.37;101810.97;5073298;27;45417;-75
2023/09/25 00:54:30;;;;;;;;;4.67;2.67;;;;;26.32;36.71;101796.53;5052164;28;45435;-75
2023/09/25 00:56:57;;;;;;;;;3.67;3.67;;;;;26.38;36.79;101801.13;5060294;27;46815;-74
2023/09/25 00:59:23;;;;;;;;;1.67;1.67;;;;;26.33;36.79;101793.69;5077510;27;45754;-75
2023/09/25 01:01:48;;;;;;;;;2.00;2.00;;;;;26.32;37.03;101796.53;5075528;27;45352;-74
2023/09/25 01:04:14;;;;;;;;;2.00;2.00;;;;;26.22;37.10;101784.31;5073548;28;45328;-75
2023/09/25 01:06:39;;;;;;;;;3.00;2.00;;;;;26.29;36.92;101795.06;5077239;28;46261;-75
2023/09/25 01:09:08;;;;;;;;;2.00;2.00;;;;;26.16;37.27;101767.22;5070041;28;45398;-75
2023/09/25 01:11:33;;;;;;;;;2.00;2.00;;;;;26.35;37.39;101798.81;5063549;27;45263;-74
2023/09/25 01:13:59;;;;;;;;;3.67;2.67;;;;;26.36;36.91;101803.16;5059835;27;45351;-74
2023/09/25 01:16:24;;;;;;;;;5.00;3.00;;;;;26.24;36.79;101784.94;5056081;28;47231;-75
2023/09/25 01:18:50;;;;;;;;;1.67;1.67;;;;;26.36;36.67;101800.47;5065286;28;45263;-74
2023/09/25 01:21:15;;;;;;;;;3.00;2.00;;;;;26.37;36.72;101802.13;5069481;27;45446;-75
2023/09/25 01:23:42;;;;;;;;;3.33;2.00;;;;;26.23;36.65;101783.28;5046032;28;45218;-75
2023/09/25 01:26:07;;;;;;;;;5.00;2.33;;;;;26.31;37.17;101786.88;5056077;28;46057;-75
2023/09/25 01:28:32;;;;;;;;;3.33;2.00;;;;;26.30;37.37;101778.03;5076926;28;45747;-75
2023/09/25 01:30:58;;;;;;;;;4.67;2.67;;;;;26.33;36.79;101790.19;5074703;28;45455;-75
2023/09/25 01:33:25;;;;;;;;;4.00;1.00;;;;;26.26;37.26;101774.06;5071274;27;45435;-75
2023/09/25 01:35:50;;;;;;;;;3.67;2.00;;;;;26.21;36.82;101768.47;5065343;28;45842;-75
2023/09/25 01:38:15;;;;;;;;;4.67;3.00;;;;;26.34;36.71;101786.47;5077370;27;45624;-74
2023/09/25 01:40:41;;;;;;;;;3.67;2.33;;;;;26.36;37.21;101792.47;5062630;27;45464;-75
2023/09/25 01:43:06;;;;;;;;;2.33;2.33;;;;;26.29;37.13;101771.03;5070128;27;45430;-75
2023/09/25 01:45:31;;;;;;;;;1.67;1.67;;;;;26.35;36.86;101785.47;5076899;27;46063;-74
2023/09/25 01:47:57;;;;;;;;;4.00;2.00;;;;;26.29;36.83;101779.88;5070440;27;45316;-75
2023/09/25 01:50:27;;;;;;;;;3.00;1.00;;;;;26.35;37.35;101788.97;5069504;28;45405;-75
2023/09/25 01:52:55;;;;;;;;;4.67;2.00;;;;;26.34;37.25;101775.81;5077024;27;45170;-74
2023/09/25 01:55:20;;;;;;;;;4.00;2.00;;;;;26.25;37.51;101765.28;5075489;27;45556;-75
2023/09/25 01:57:46;;;;;;;;;2.00;1.67;;;;;26.31;37.18;101777.00;5064265;28;45394;-74
2023/09/25 02:00:12;;;;;;;;;3.67;2.00;;;;;26.21;37.22;101757.81;5071376;27;45291;-75
2023/09/25 02:02:38;;;;;;;;;4.00;3.00;;;;;26.30;36.97;101772.72;5064479;28;45439;-75
2023/09/25 02:05:05;;;;;;;;;3.00;2.67;;;;;26.33;37.41;101769.66;5071400;27;47341;-75
2023/09/25 02:07:31;;;;;;;;;2.00;2.00;;;;;26.35;37.06;101766.81;5073729;27;45300;-74
2023/09/25 02:09:56;;;;;;;;;2.33;2.00;;;;;26.34;37.33;101768.63;5051824;28;45332;-75
2023/09/25 02:12:21;;;;;;;;;4.00;2.67;;;;;26.34;37.04;101768.63;5056019;28;45808;-76
2023/09/25 02:14:48;;;;;;;;;3.33;2.00;;;;;26.33;37.33;101764.34;5060508;28;45961;-75
2023/09/25 02:17:13;;;;;;;;;3.00;1.00;;;;;26.34;37.15;101765.97;5076745;27;45405;-74
2023/09/25 02:19:39;;;;;;;;;2.00;2.00;;;;;26.34;37.00;101759.81;5076037;28;45444;-75
2023/09/25 02:22:06;;;;;;;;;2.33;1.33;;;;;26.33;36.79;101761.66;5069677;27;45467;-74
2023/09/25 02:24:34;;;;;;;;;2.00;2.00;;;;;26.18;37.07;101741.16;5054033;28;46066;-75
2023/09/25 02:26:59;;;;;;;;;2.67;2.00;;;;;26.33;36.97;101758.16;5060358;28;45525;-75
2023/09/25 02:29:24;;;;;;;;;3.00;2.33;;;;;26.33;36.90;101766.16;5069490;28;45309;-75
2023/09/25 02:31:50;;;;;;;;;1.00;1.00;;;;;26.20;37.66;101740.16;5069671;27;45392;-74
2023/09/25 02:34:16;;;;;;;;;2.00;2.00;;;;;26.26;37.38;101750.06;5056543;28;46978;-75
2023/09/25 02:36:42;;;;;;;;;1.33;1.33;;;;;26.20;36.99;101734.84;5064165;28;45352;-75
2023/09/25 02:39:09;;;;;;;;;3.00;3.00;;;;;26.29;37.03;101752.38;5063918;28;45394;-75
2023/09/25 02:41:35;;;;;;;;;1.67;1.33;;;;;26.30;36.84;101746.03;5057630;27;45363;-75
2023/09/25 02:44:00;;;;;;;;;2.33;2.33;;;;;26.29;37.09;101747.03;5069259;28;47252;-76
2023/09/25 02:46:25;;;;;;;;;3.67;2.67;;;;;26.32;36.86;101745.84;5075483;27;45365;-74
2023/09/25 02:48:51;;;;;;;;;3.33;2.00;;;;;26.19;37.41;101720.66;5075298;27;45331;-75
2023/09/25 02:51:16;;;;;;;;;2.00;2.00;;;;;26.21;36.71;101736.47;5076415;27;45362;-75
2023/09/25 02:53:41;;;;;;;;;1.67;1.33;;;;;26.22;37.08;101740.81;5075151;28;46915;-76
2023/09/25 02:56:07;;;;;;;;;1.00;1.00;;;;;26.32;36.94;101752.00;5075433;28;45444;-76
2023/09/25 02:58:32;;;;;;;;;3.33;3.33;;;;;26.33;37.37;101752.84;5056639;27;45363;-75
2023/09/25 03:00:59;;;;;;;;;2.33;2.00;;;;;26.23;36.99;101737.13;5075413;28;45398;-75
2023/09/25 03:03:24;;;;;;;;;1.33;0.33;;;;;26.24;37.46;101741.44;5070086;27;46315;-75
2023/09/25 03:05:50;;;;;;;;;1.00;1.00;;;;;26.23;36.86;101748.59;5068636;27;45355;-74
2023/09/25 03:08:15;;;;;;;;;2.33;1.00;;;;;26.31;36.84;101763.69;5053452;28;45303;-75
2023/09/25 03:10:40;;;;;;;;;3.00;1.00;;;;;26.28;36.93;101756.06;5068553;27;45421;-74
2023/09/25 03:13:06;;;;;;;;;2.67;2.67;;;;;26.20;37.02;101745.50;5068596;28;46153;-76
2023/09/25 03:15:31;;;;;;;;;3.00;3.00;;;;;26.31;37.39;101773.53;5055683;28;45303;-74
2023/09/25 03:17:56;;;;;;;;;1.33;1.33;;;;;26.24;37.00;101762.78;5056101;28;45354;-76
2023/09/25 03:20:24;;;;;;;;;1.00;1.00;;;;;26.29;36.91;101774.53;5054728;28;45439;-75
2023/09/25 03:22:49;;;;;;;;;2.00;1.00;;;;;26.24;37.16;101765.44;5054834;28;47216;-75
2023/09/25 03:25:14;;;;;;;;;2.33;1.67;;;;;26.31;37.47;101773.53;5042901;28;45482;-75
2023/09/25 03:27:40;;;;;;;;;1.67;1.67;;;;;26.23;37.01;101756.59;5055708;28;45363;-75
2023/09/25 03:30:06;;;;;;;;;2.00;2.00;;;;;26.25;37.28;101759.94;5055736;28;45525;-74
2023/09/25 03:32:32;;;;;;;;;1.00;1.00;;;;;26.25;37.13;101764.44;5055856;28;46035;-75
2023/09/25 03:34:58;;;;;;;;;2.00;1.00;;;;;26.27;36.99;101765.06;5046389;28;45568;-75
2023/09/25 03:37:23;;;;;;;;;1.33;1.00;;;;;26.24;37.27;101766.28;5050047;28;45831;-74
2023/09/25 03:39:48;;;;;;;;;1.67;1.00;;;;;26.29;37.31;101776.38;5055933;27;45337;-75
2023/09/25 03:42:14;;;;;;;;;1.00;1.00;;;;;26.29;36.96;101779.03;5055824;28;47014;-75
2023/09/25 03:44:39;;;;;;;;;2.00;2.00;;;;;26.26;37.29;101774.91;5055728;28;45388;-74
2023/09/25 03:47:05;;;;;;;;;2.67;2.67;;;;;26.25;37.11;101775.09;5043548;28;45475;-75
2023/09/25 03:49:30;;;;;;;;;2.67;1.67;;;;;26.29;37.00;101784.38;5056118;28;45707;-75
2023/09/25 03:51:55;;;;;;;;;3.00;2.00;;;;;26.22;37.32;101770.97;5055566;28;46105;-75
2023/09/25 03:54:21;;;;;;;;;2.67;2.33;;;;;26.27;36.92;101787.25;5051193;27;45485;-74
2023/09/25 03:56:46;;;;;;;;;2.00;2.00;;;;;26.28;36.89;101791.53;5045526;28;45485;-75
2023/09/25 03:59:11;;;;;;;;;1.00;1.00;;;;;26.27;37.42;101783.75;5051845;28;45334;-74
2023/09/25 04:01:37;;;;;;;;;1.33;1.33;;;;;26.25;37.44;101780.44;5055224;28;46317;-76
2023/09/25 04:04:03;;;;;;;;;1.33;1.33;;;;;26.21;37.40;101766.63;5072062;28;45241;-75
2023/09/25 04:06:28;;;;;;;;;1.00;1.00;;;;;26.15;37.61;101765.53;5074572;27;45422;-75
2023/09/25 04:08:53;;;;;;;;;3.00;2.33;;;;;26.27;37.16;101781.91;5074980;27;45346;-75
2023/09/25 04:11:19;;;;;;;;;3.00;1.00;;;;;26.28;37.61;101786.22;5062348;28;46452;-74
2023/09/25 04:13:44;;;;;;;;;1.00;0.00;;;;;26.26;37.04;101782.06;5056451;28;45403;-75
2023/09/25 04:16:13;;;;;;;;;1.00;1.00;;;;;26.29;37.33;101781.72;5057847;28;45293;-75
2023/09/25 04:18:39;;;;;;;;;1.00;1.00;;;;;26.16;37.15;101777.88;5058706;28;45351;-75
2023/09/25 04:21:07;;;;;;;;;2.33;2.00;;;;;25.35;37.10;101649.66;5057965;28;45991;-74
2023/09/25 04:23:33;;;;;;;;;1.67;1.67;;;;;26.28;37.11;101782.75;5058248;28;45771;-75
2023/09/25 04:26:00;;;;;;;;;1.00;1.00;;;;;26.23;37.54;101769.13;5058293;28;45395;-75
2023/09/25 04:28:29;;;;;;;;;3.00;1.00;;;;;26.29;37.34;101787.03;5058297;28;45394;-76
2023/09/25 04:30:57;;;;;;;;;1.67;1.67;;;;;26.28;37.31;101788.88;5058187;28;45336;-75
2023/09/25 04:33:24;;;;;;;;;2.00;2.00;;;;;26.29;37.33;101795.88;5055305;28;45304;-75
2023/09/25 04:35:52;;;;;;;;;3.00;1.00;;;;;26.27;36.99;101795.25;5050868;28;45369;-75
2023/09/25 04:38:18;;;;;;;;;2.33;1.00;;;;;26.22;37.10;101789.66;5056371;28;45351;-75
2023/09/25 04:40:46;;;;;;;;;1.33;1.33;;;;;26.18;37.46;101780.34;5053276;28;45279;-75
2023/09/25 04:43:11;;;;;;;;;1.00;1.00;;;;;26.03;37.44;101759.03;5058784;28;45863;-74
2023/09/25 04:45:36;;;;;;;;;2.00;2.00;;;;;25.96;37.71;101764.28;5058539;28;45496;-75
2023/09/25 04:48:03;;;;;;;;;3.00;1.33;;;;;26.25;37.49;101807.94;5052758;28;45628;-75
2023/09/25 04:50:28;;;;;;;;;1.00;1.00;;;;;26.14;37.21;101789.75;5052114;28;46195;-75
2023/09/25 04:52:53;;;;;;;;;2.33;1.33;;;;;26.24;37.07;101805.44;5058543;28;45473;-75
2023/09/25 04:55:19;;;;;;;;;0.33;0.00;;;;;26.26;37.59;101814.91;5058937;28;45637;-75
2023/09/25 04:57:46;;;;;;;;;2.00;2.00;;;;;26.14;37.56;101795.06;5058053;27;45561;-75
2023/09/25 05:00:21;;;;;;;;;2.00;1.00;;;;;26.17;37.25;101806.22;5058757;28;45446;-75
2023/09/25 05:02:48;;;;;;;;;1.00;1.00;;;;;26.19;37.31;101814.00;5058165;28;45319;-74
2023/09/25 05:05:15;;;;;;;;;1.00;1.00;;;;;26.02;36.92;101789.38;5054902;28;45768;-74
2023/09/25 05:07:42;;;;;;;;;1.00;1.00;;;;;26.17;37.68;101810.72;5044768;28;45435;-74
2023/09/25 05:10:11;;;;;;;;;1.00;1.00;;;;;26.28;37.26;101825.44;5052253;28;46330;-74
2023/09/25 05:12:40;;;;;;;;;1.67;1.67;;;;;26.25;37.23;101815.94;5056476;28;45442;-74
2023/09/25 05:15:10;;;;;;;;;1.33;1.33;;;;;26.24;37.34;101813.44;5060957;27;45391;-75
2023/09/25 05:17:37;;;;;;;;;1.33;1.00;;;;;26.21;37.23;101816.47;5054413;28;46106;-75
2023/09/25 05:20:15;;;;;;;;;1.00;1.00;;;;;26.26;37.06;101830.09;5068601;28;46650;-75
2023/09/25 05:22:51;;;;;;;;;1.67;1.67;;;;;26.28;37.02;101830.75;5069801;28;45362;-75
2023/09/25 05:25:18;;;;;;;;;1.00;1.00;;;;;26.27;37.12;101826.44;5063132;28;45217;-75
2023/09/25 05:27:48;;;;;;;;;1.00;1.00;;;;;26.27;37.51;101832.59;5070858;28;45455;-75
2023/09/25 05:30:17;;;;;;;;;1.00;1.00;;;;;26.26;37.57;101835.44;5076367;27;47217;-75
2023/09/25 05:32:44;;;;;;;;;3.00;1.00;;;;;26.24;37.20;101834.78;5063513;27;45661;-80
2023/09/25 05:35:10;;;;;;;;;0.00;0.00;;;;;26.26;37.22;101843.44;5059256;27;45451;-76
2023/09/25 05:37:36;;;;;;;;;2.00;2.00;;;;;26.18;37.55;101833.69;5056213;27;45437;-77
2023/09/25 05:40:05;;;;;;;;;2.67;1.00;;;;;26.27;37.79;101845.09;5056102;28;47336;-79
2023/09/25 05:42:30;;;;;;;;;1.00;1.00;;;;;26.26;37.59;101843.44;5059141;28;45288;-79
2023/09/25 05:44:56;;;;;;;;;3.00;1.67;;;;;26.25;37.93;101839.97;5062288;27;45384;-77
2023/09/25 05:47:21;;;;;;;;;3.00;1.00;;;;;26.29;38.24;101854.56;5068915;28;45229;-72
2023/09/25 05:49:47;;;;;;;;;2.67;2.00;;;;;26.23;38.08;101835.81;5063744;27;46346;-73
2023/09/25 05:52:12;;;;;;;;;1.00;1.00;;;;;26.33;37.95;101859.53;5051482;28;45419;-73
2023/09/25 05:54:38;;;;;;;;;2.00;1.00;;;;;26.34;38.23;101858.50;5053210;28;46606;-74
2023/09/25 05:57:05;;;;;;;;;2.00;1.00;;;;;26.34;38.34;101863.84;5060396;27;45479;-73
2023/09/25 05:59:32;;;;;;;;;2.00;1.67;;;;;26.27;38.30;101855.75;5046522;28;47008;-73
2023/09/25 06:01:57;;;;;;;;;1.00;1.00;;;;;26.35;38.23;101874.34;5068453;28;45478;-72
2023/09/25 06:04:23;;;;;;;;;1.00;1.00;;;;;26.35;38.52;101873.50;5055015;28;45488;-74
2023/09/25 06:06:48;;;;;;;;;1.67;1.00;;;;;26.29;38.05;101861.75;5059733;28;45276;-73
2023/09/25 06:09:15;;;;;;;;;2.33;1.00;;;;;26.35;38.13;101869.00;5046044;28;46974;-72
2023/09/25 06:11:41;;;;;;;;;3.67;1.00;;;;;26.36;37.99;101872.50;5050500;28;45366;-74
2023/09/25 06:14:07;;;;;;;;;2.00;2.00;;;;;26.33;37.84;101868.38;5064444;28;45269;-72
2023/09/25 06:16:33;;;;;;;;;0.00;0.00;;;;;26.09;38.11;101827.63;5056071;27;45654;-72
2023/09/25 06:18:58;;;;;;;;;1.67;1.00;;;;;26.32;38.25;101865.88;5051736;28;45414;-71
2023/09/25 06:21:24;;;;;;;;;1.00;1.00;;;;;26.33;38.40;101873.72;5055893;28;45495;-72
2023/09/25 06:23:50;;;;;;;;;2.00;1.00;;;;;26.34;37.97;101872.69;5056904;28;45421;-72
2023/09/25 06:26:15;;;;;;;;;3.00;2.00;;;;;26.36;37.93;101878.66;5056064;28;45549;-72
2023/09/25 06:28:41;;;;;;;;;2.00;1.00;;;;;26.31;37.93;101882.91;5056507;28;45427;-73
2023/09/25 06:31:07;;;;;;;;;2.00;1.00;;;;;26.28;38.55;101889.44;5056296;28;45509;-73
2023/09/25 06:33:32;;;;;;;;;3.00;0.33;;;;;26.26;38.47;101881.59;5052955;28;45358;-78
2023/09/25 06:35:58;;;;;;;;;1.67;1.00;;;;;26.31;38.65;101880.25;5052995;28;45531;-74
2023/09/25 06:38:24;;;;;;;;;1.00;1.00;;;;;26.36;38.59;101891.19;5049834;28;46205;-74
2023/09/25 06:40:49;;;;;;;;;1.00;1.00;;;;;26.29;38.67;101888.41;5057792;28;45253;-74
2023/09/25 06:43:15;;;;;;;;;2.00;2.00;;;;;26.40;38.41;101898.63;5056767;28;45415;-74
2023/09/25 06:45:40;;;;;;;;;0.00;0.00;;;;;26.40;38.59;101898.63;5055417;28;45438;-73
2023/09/25 06:48:06;;;;;;;;;2.67;1.00;;;;;26.36;38.60;101885.84;5056777;28;45269;-74
2023/09/25 06:50:31;;;;;;;;;1.00;1.00;;;;;26.39;38.20;101888.97;5055860;28;45437;-74
2023/09/25 06:52:57;;;;;;;;;1.00;1.00;;;;;26.49;38.25;101901.25;5057221;28;45905;-74
2023/09/25 06:55:23;;;;;;;;;3.00;2.00;;;;;26.51;38.27;101902.72;5056764;28;45624;-75
2023/09/25 06:57:49;;;;;;;;;1.00;1.00;;;;;26.52;38.50;101903.53;5056150;28;46841;-74
2023/09/25 07:00:14;;;;;;;;;3.33;2.00;;;;;26.56;38.24;101904.81;5056607;28;45351;-74
2023/09/25 07:02:40;;;;;;;;;1.00;1.00;;;;;26.51;38.53;101901.88;5055963;28;45513;-74
2023/09/25 07:05:06;;;;;;;;;2.00;1.33;;;;;26.59;38.27;101911.63;5055246;28;45526;-74
2023/09/25 07:07:31;;;;;;;;;0.33;0.33;;;;;26.54;37.90;101904.19;5056343;28;46424;-73
2023/09/25 07:09:57;;;;;;;;;1.67;1.67;;;;;26.57;38.46;101906.47;5056877;28;45898;-74
2023/09/25 07:12:22;;;;;;;;;2.00;2.00;;;;;26.61;37.95;101906.94;5063286;28;46531;-74
2023/09/25 07:14:52;;;;;;;;;1.00;1.00;;;;;26.63;38.30;101904.91;5064286;27;45502;-74
2023/09/25 07:17:17;;;;;;;;;2.00;1.00;;;;;26.56;38.11;101898.66;5055549;28;47009;-74
2023/09/25 07:19:42;;;;;;;;;2.33;2.00;;;;;26.63;37.75;101913.75;5055705;28;45612;-74
2023/09/25 07:22:08;;;;;;;;;1.67;1.67;;;;;26.65;38.00;101913.53;5047445;28;46555;-74
2023/09/25 07:24:33;;;;;;;;;1.33;1.33;;;;;26.61;37.74;101912.25;5056172;28;45370;-74
2023/09/25 07:26:59;;;;;;;;;1.00;1.00;;;;;26.50;37.94;101895.72;5055807;28;46117;-74
2023/09/25 07:29:24;;;;;;;;;1.00;1.00;;;;;26.51;37.91;101899.22;5055448;28;45358;-73
2023/09/25 07:31:51;;;;;;;;;1.00;1.00;;;;;26.52;37.94;101901.69;5056359;28;45372;-74
2023/09/25 07:34:16;;;;;;;;;2.33;2.00;;;;;26.61;38.12;101917.59;5056080;28;45351;-73
2023/09/25 07:36:42;;;;;;;;;1.33;1.00;;;;;26.61;38.00;101917.59;5054650;28;45507;-74
2023/09/25 07:39:13;;;;;;;;;1.67;1.67;;;;;26.61;37.59;101912.25;5050460;28;45359;-74
2023/09/25 07:41:39;;;;;;;;;1.67;1.00;;;;;26.60;38.05;101915.94;5045637;28;45447;-74
2023/09/25 07:44:07;;;;;;;;;1.00;1.00;;;;;26.56;37.60;101914.66;5055706;28;45519;-74
2023/09/25 07:46:33;;;;;;;;;1.67;1.67;;;;;26.60;37.83;101922.09;5055980;28;47092;-73
2023/09/25 07:48:59;;;;;;;;;1.00;1.00;;;;;26.58;38.04;101920.63;5057827;28;45633;-73
2023/09/25 07:51:24;;;;;;;;;1.00;1.00;;;;;26.52;37.72;101919.53;5059464;28;45669;-74
2023/09/25 07:53:51;;;;;;;;;3.00;2.00;;;;;26.56;38.05;101925.34;5060023;28;45358;-74
2023/09/25 07:56:16;;;;;;;;;2.33;1.00;;;;;26.59;38.11;101938.31;5055496;28;46292;-74
2023/09/25 07:58:42;;;;;;;;;3.00;2.00;;;;;26.54;37.62;101924.69;5059549;28;45455;-74
2023/09/25 08:01:08;;;;;;;;;2.00;1.00;;;;;26.52;37.66;101928.38;5059273;28;45838;-74
2023/09/25 08:03:34;;;;;;;;;1.00;1.00;;;;;26.58;38.27;101937.47;5058776;28;45272;-74
2023/09/25 08:06:05;;;;;;;;;1.33;1.33;;;;;26.57;38.06;101943.81;5059656;28;45391;-73
2023/09/25 08:08:30;;;;;;;;;2.33;1.67;;;;;26.59;38.08;101951.66;5046931;28;45277;-73
2023/09/25 08:10:57;;;;;;;;;2.00;2.00;;;;;26.36;37.61;101915.19;5059200;28;45703;-74
2023/09/25 08:13:22;;;;;;;;;2.00;2.00;;;;;26.58;37.61;101953.50;5073565;28;45349;-74
2023/09/25 08:15:47;;;;;;;;;2.00;2.00;;;;;26.55;37.96;101955.69;5067514;27;45457;-73
2023/09/25 08:18:14;;;;;;;;;4.00;1.00;;;;;26.56;37.75;101957.38;5069825;28;45404;-73
2023/09/25 08:20:39;;;;;;;;;1.00;1.00;;;;;26.56;37.64;101960.03;5078828;28;45340;-73
2023/09/25 08:23:05;;;;;;;;;1.00;1.00;;;;;26.51;37.69;101953.41;5076077;27;45368;-74
2023/09/25 08:25:30;;;;;;;;;2.33;1.33;;;;;26.54;37.69;101956.72;5070120;28;46070;-74
2023/09/25 08:27:56;;;;;;;;;3.00;1.00;;;;;26.54;37.90;101952.22;5072724;28;45390;-73
2023/09/25 08:30:22;;;;;;;;;3.67;1.00;;;;;26.54;38.05;101959.41;5078828;27;45396;-74
2023/09/25 08:32:48;;;;;;;;;2.00;2.00;;;;;26.57;37.59;101967.03;5074330;27;45437;-74
2023/09/25 08:35:14;;;;;;;;;2.00;1.00;;;;;26.51;38.09;101957.94;5050823;27;46376;-74
2023/09/25 08:37:39;;;;;;;;;0.67;0.67;;;;;26.46;37.98;101953.16;5068841;28;45320;-74
2023/09/25 08:40:05;;;;;;;;;0.33;0.33;;;;;26.55;37.97;101966.38;5077824;28;45711;-74
2023/09/25 08:42:31;;;;;;;;;4.00;1.00;;;;;26.49;38.07;101962.63;5069728;27;45446;-73
2023/09/25 08:45:00;;;;;;;;;2.00;2.00;;;;;26.55;37.60;101967.19;5077914;28;45460;-74
2023/09/25 08:47:27;;;;;;;;;0.00;0.00;;;;;26.55;38.20;101969.88;5077106;28;45330;-74
2023/09/25 08:49:53;;;;;;;;;1.00;1.00;;;;;26.54;38.12;101968.25;5078331;27;45299;-74
2023/09/25 08:52:21;;;;;;;;;2.00;0.67;;;;;26.57;38.20;101967.84;5076751;27;45585;-73
2023/09/25 08:54:50;;;;;;;;;1.00;1.00;;;;;26.49;37.77;101958.09;5077334;27;48524;-74
2023/09/25 08:57:17;;;;;;;;;1.00;1.00;;;;;26.59;37.65;101973.84;5072179;27;45339;-74
2023/09/25 08:59:49;;;;;;;;;1.00;1.00;;;;;26.50;38.09;101949.09;5067521;27;45703;-74
2023/09/25 09:02:15;;;;;;;;;2.33;1.33;;;;;26.55;38.06;101958.38;5075723;28;45342;-74
2023/09/25 09:04:41;;;;;;;;;2.00;1.00;;;;;26.60;37.61;101974.66;5073654;27;45321;-73
2023/09/25 09:07:10;;;;;;;;;1.67;1.67;;;;;26.60;37.83;101969.31;5072234;28;45494;-74
2023/09/25 09:09:36;;;;;;;;;1.33;1.33;;;;;26.60;37.84;101978.16;5049347;28;45483;-74
2023/09/25 09:12:02;;;;;;;;;1.00;1.00;;;;;26.58;38.04;101971.34;5055778;28;45575;-74
2023/09/25 09:14:33;;;;;;;;;1.67;1.00;;;;;26.60;37.89;101975.50;5057266;28;45649;-74
2023/09/25 09:17:00;;;;;;;;;3.00;2.00;;;;;26.55;37.89;101972.53;5056139;28;45457;-73
2023/09/25 09:19:25;;;;;;;;;3.00;0.67;;;;;26.59;37.74;101981.84;5058285;28;45407;-74
2023/09/25 09:22:05;;;;;;;;;2.00;1.67;;;;;26.61;37.81;101985.16;5057296;28;45351;-74
2023/09/25 09:24:32;;;;;;;;;1.00;1.00;;;;;26.57;37.89;101986.53;5058044;28;46236;-74
2023/09/25 09:26:58;;;;;;;;;1.67;1.00;;;;;26.55;37.83;101987.72;5051970;28;45756;-74
2023/09/25 09:29:23;;;;;;;;;1.00;1.00;;;;;26.62;38.08;102002.81;5075007;28;45550;-74
2023/09/25 09:31:52;;;;;;;;;1.67;1.67;;;;;26.65;38.27;101995.47;5077380;27;45463;-74
2023/09/25 09:34:22;;;;;;;;;1.33;1.33;;;;;26.56;38.27;101976.88;5059212;27;47052;-74
2023/09/25 09:36:51;;;;;;;;;2.67;1.00;;;;;26.54;38.32;101970.91;5074411;28;45413;-74
2023/09/25 09:39:20;;;;;;;;;0.67;0.67;;;;;26.69;37.85;101997.59;5072162;28;45339;-74
2023/09/25 09:41:49;;;;;;;;;1.00;1.00;;;;;26.70;37.97;101995.75;5069724;27;45497;-74
2023/09/25 09:44:15;;;;;;;;;1.00;1.00;;;;;26.72;38.10;101999.91;5072435;28;47275;-74
2023/09/25 09:46:44;;;;;;;;;2.00;2.00;;;;;26.68;37.85;101995.91;5066187;27;45386;-74
2023/09/25 09:49:15;;;;;;;;;2.00;1.00;;;;;26.72;37.95;101996.41;5072312;27;45368;-74
2023/09/25 09:51:43;;;;;;;;;2.00;1.00;;;;;26.71;38.20;101992.06;5076357;27;45395;-74
2023/09/25 09:54:13;;;;;;;;;0.00;0.00;;;;;26.65;38.12;101977.59;5071521;27;45513;-74
2023/09/25 09:56:39;;;;;;;;;2.00;2.00;;;;;26.76;38.42;101992.31;5070323;27;45503;-73
2023/09/25 09:59:06;;;;;;;;;2.00;2.00;;;;;26.76;38.25;101988.81;5072860;28;45408;-74
2023/09/25 10:01:36;;;;;;;;;2.67;1.33;;;;;26.75;38.30;101988.03;5076172;27;45319;-74
2023/09/25 10:04:05;;;;;;;;;0.67;0.67;;;;;26.79;38.03;101994.63;5071203;27;46941;-74
2023/09/25 10:06:31;;;;;;;;;2.00;1.67;;;;;26.79;38.41;101997.31;5066408;27;45380;-74
2023/09/25 10:09:10;;;;;;;;;1.00;1.00;;;;;26.74;38.18;101995.19;5073192;28;45398;-73
2023/09/25 10:11:36;;;;;;;;;2.33;1.67;;;;;26.72;38.31;101989.22;5060774;28;45384;-74
2023/09/25 10:14:08;;;;;;;;;1.00;1.00;;;;;26.82;38.36;102009.44;5054324;28;45305;-74
2023/09/25 10:17:08;;;;;;;;;1.00;1.00;;;;;26.51;37.78;101953.41;5066798;28;45637;-73
2023/09/25 10:19:37;;;;;;;;;2.33;1.00;;;;;26.83;38.34;101998.56;4977625;28;45398;-73
2023/09/25 10:22:09;;;;;;;;;1.67;1.00;;;;;26.84;37.86;101996.75;4974765;28;45546;-73
2023/09/25 10:24:34;;;;;;;;;1.33;1.00;;;;;26.76;38.67;101986.16;4970309;28;46244;-74
2023/09/25 10:26:59;;;;;;;;;1.33;0.00;;;;;26.77;38.20;101991.31;4974606;28;45866;-74
2023/09/25 10:29:26;;;;;;;;;1.67;1.67;;;;;26.85;38.42;101993.06;4974467;28;45487;-74
2023/09/25 10:31:52;;;;;;;;;1.67;1.67;;;;;26.88;38.11;101991.88;4974797;28;45419;-74
2023/09/25 10:34:17;;;;;;;;;1.00;1.00;;;;;26.90;37.86;101989.84;4978614;28;46464;-74
2023/09/25 10:36:45;;;;;;;;;2.00;2.00;;;;;26.84;38.52;101981.56;4983743;28;45347;-74
2023/09/25 10:39:15;;;;;;;;;1.00;1.00;;;;;26.90;38.09;101993.34;4969103;28;45379;-74
2023/09/25 10:41:42;;;;;;;;;2.67;1.00;;;;;26.91;37.93;101996.81;4974595;28;46670;-74
2023/09/25 10:44:10;;;;;;;;;1.67;1.00;;;;;26.90;37.85;101982.66;4974045;28;46200;-73
2023/09/25 10:46:35;;;;;;;;;2.00;1.00;;;;;26.92;37.82;101987.81;4972196;28;45383;-73
2023/09/25 10:49:01;;;;;;;;;1.67;1.00;;;;;26.63;38.53;101950.28;4974694;28;45505;-74
2023/09/25 10:51:26;;;;;;;;;1.33;1.33;;;;;26.92;38.44;101987.81;4970694;28;46358;-73
2023/09/25 10:53:51;;;;;;;;;0.67;0.67;;;;;26.89;38.19;101977.50;5020640;28;46096;-73
2023/09/25 10:56:18;;;;;;;;;2.00;2.00;;;;;26.94;38.08;101977.75;5048963;28;45517;-74
2023/09/25 10:58:52;;;;;;;;;1.00;1.00;;;;;26.94;37.96;101985.78;5056900;28;45910;-74
2023/09/25 11:01:44;;;;;;;;;1.67;0.00;;;;;26.94;38.65;101975.09;5056597;28;45719;-74
2023/09/25 11:04:09;;;;;;;;;0.00;0.00;;;;;26.94;37.98;101980.44;5041132;28;46117;-74
2023/09/25 11:06:35;;;;;;;;;0.00;0.00;;;;;26.94;38.45;101977.75;5056675;28;45545;-74
2023/09/25 11:09:08;;;;;;;;;1.00;1.00;;;;;26.95;38.13;101979.44;5049608;28;45385;-74
2023/09/25 11:11:33;;;;;;;;;1.00;1.00;;;;;26.92;38.09;101971.78;5056083;28;45757;-74
2023/09/25 11:13:59;;;;;;;;;1.33;1.33;;;;;26.90;38.02;101966.66;5072953;28;46073;-74
2023/09/25 11:16:25;;;;;;;;;1.00;1.00;;;;;26.96;38.41;101978.41;5065916;27;45494;-74
2023/09/25 11:19:21;;;;;;;;;1.33;1.33;;;;;26.95;38.04;101980.25;5075849;27;45299;-74
2023/09/25 11:21:49;;;;;;;;;1.33;1.00;;;;;26.96;38.37;101979.22;5053604;28;45449;-74